Terminal Aerodrome Forecast
Issued by NWS Rapid City, SD

Home | Current Version | Previous Version | Graphics & Text | Print | Product List | Glossary On
Versions: 1 2 3 4 5 6 7 8 9 10 11 12 13 14
388
FTUS43 KUNR 222326
TAFRAP
TAF
KRAP 222326Z 2300/2324 34018G28KT P6SM SCT080
     FM230300 34014KT P6SM BKN100
     FM231400 33022G32KT P6SM SCT150=

USA.gov is the U.S. government's official web portal to all federal, state and local government web resources and services.